Latest Coastal Weather Observations for Port Kembla Harbour

IDN60701

Issued at 4:02 am EST Tuesday 28 June 2022 (issued every 10 minutes, with the page automatically refreshed every 10 minutes)

About coastal observations | Map of coastal stations | Coastal observations for NSW | Marine services | Other Formats
Station Details ID: 068253 Name: PORT KEMBLA NTC AWS Lat: -34.47 Lon: 150.91 Height: 0.0 m
Data from the previous 72 hours. | See also: Recent months for locations in New South Wales
Date/Time
EST
Wind Sea
Height
m
Swell Vis
km
Cloud Weather Temp
°C
Press
MSL
hPa
Rain since
9am
mm
Dir  Spd
kts
Gust
kts
Height
m
Period
s
Dir
28/04:00am WSW 10 14 - - - - - - - 10.6 1028.8 -
28/03:30am WSW 11 17 - - - - - - - 11.1 1028.7 -
28/03:00am SW 11 16 - - - - - - - 10.7 1029.1 -
28/02:30am WSW 13 19 - - - - - - - 11.0 1029.3 -
28/02:00am WSW 11 17 - - - - - - - 11.3 1029.5 -
28/01:30am SW 11 18 - - - - - - - 11.3 1029.7 -
28/01:00am WSW 12 23 - - - - - - - 11.7 1029.7 -
28/12:30am WSW 12 17 - - - - - - - 11.9 1029.5 -
28/12:00am WSW 14 19 - - - - - - - 12.0 1029.5 -
 
Date/Time
EST
Wind Sea
Height
m
Swell Vis
km
Cloud Weather Temp
°C
Press
MSL
hPa
Rain since
9am
mm
Dir  Spd
kts
Gust
kts
Height
m
Period
s
Dir
27/11:30pm WSW 12 17 - - - - - - - 11.9 1029.8 -
27/11:00pm SW 12 18 - - - - - - - 12.3 1029.7 -
27/10:30pm SW 11 18 - - - - - - - 12.5 1029.5 -
27/10:00pm WSW 10 14 - - - - - - - 12.5 1029.6 -
27/09:30pm WSW 10 14 - - - - - - - 12.7 1029.5 -
27/09:00pm WSW 10 14 - - - - - - - 12.7 1029.4 -
27/08:30pm WSW 11 16 - - - - - - - 12.7 1029.4 -
27/08:00pm WSW 11 16 - - - - - - - 12.6 1029.2 -
27/07:30pm WSW 9 12 - - - - - - - 12.6 1029.1 -
27/07:00pm WSW 9 15 - - - - - - - 12.8 1028.7 -
27/06:30pm WSW 10 16 - - - - - - - 12.8 1028.5 -
27/06:00pm WSW 11 16 - - - - - - - 12.9 1028.4 -
27/05:30pm WSW 11 16 - - - - - - - 13.0 1027.9 -
27/05:00pm SW 12 19 - - - - - - - 13.3 1027.5 -
27/04:30pm SW 15 24 - - - - - - - 13.6 1027.3 -
27/04:00pm SW 15 24 - - - - - - - 13.7 1027.2 -
27/03:37pm SW 15 25 - - - - - - - 13.7 1027.1 -
27/03:30pm SW 13 26 - - - - - - - 13.6 1027.2 -
27/03:03pm SW 15 25 - - - - - - - 13.9 1026.9 -
27/03:00pm SW 14 25 - - - - - - - 13.9 1026.8 -
27/02:30pm SW 13 23 - - - - - - - 13.9 1026.7 -
27/02:01pm SW 15 25 - - - - - - - 14.0 1026.8 -
27/02:00pm SW 14 24 - - - - - - - 13.9 1026.8 -
27/01:30pm SW 15 23 - - - - - - - 13.6 1026.7 -
27/01:00pm SSW 12 22 - - - - - - - 13.6 1026.4 -
27/12:30pm SSW 11 22 - - - - - - - 14.2 1026.2 -
27/12:00pm SSW 11 22 - - - - - - - 14.3 1026.5 -
27/11:39am SW 16 27 - - - - - - - 14.0 1026.6 -
27/11:30am SSW 10 21 - - - - - - - 14.1 1026.6 -
27/11:00am SW 13 20 - - - - - - - 14.1 1026.8 -
27/10:30am SW 13 21 - - - - - - - 13.8 1026.8 -
27/10:00am SW 13 19 - - - - - - - 13.7 1026.8 -
27/09:30am SW 11 19 - - - - - - - 13.8 1026.4 -
27/09:00am WSW 12 17 - - - - - - - 13.3 1026.1 -
27/08:30am WSW 11 17 - - - - - - - 13.0 1025.6 -
27/08:00am WSW 9 13 - - - - - - - 12.6 1025.3 -
27/07:30am W 9 11 - - - - - - - 12.0 1025.0 -
27/07:00am W 11 15 - - - - - - - 12.3 1025.0 -
27/06:30am WSW 10 15 - - - - - - - 12.5 1024.6 -
27/06:00am WSW 9 13 - - - - - - - 12.5 1024.2 -
27/05:30am WSW 10 12 - - - - - - - 12.6 1023.7 -
27/05:00am WSW 10 13 - - - - - - - 12.9 1023.3 -
27/04:30am WSW 12 18 - - - - - - - 13.1 1023.1 -
27/04:00am WSW 11 14 - - - - - - - 13.4 1022.8 -
27/03:30am WSW 10 15 - - - - - - - 13.3 1022.8 -
27/03:00am W 12 16 - - - - - - - 13.6 1022.9 -
27/02:30am WSW 11 16 - - - - - - - 13.7 1023.1 -
27/02:00am W 11 18 - - - - - - - 13.7 1023.0 -
27/01:30am W 9 13 - - - - - - - 13.6 1023.2 -
27/01:00am W 8 10 - - - - - - - 13.8 1023.3 -
27/12:30am WSW 6 8 - - - - - - - 13.6 1023.5 -
27/12:00am W 8 10 - - - - - - - 14.0 1023.5 -
 
Date/Time
EST
Wind Sea
Height
m
Swell Vis
km
Cloud Weather Temp
°C
Press
MSL
hPa
Rain since
9am
mm
Dir  Spd
kts
Gust
kts
Height
m
Period
s
Dir
26/11:30pm W 9 11 - - - - - - - 14.0 1023.6 -
26/11:00pm W 11 14 - - - - - - - 14.2 1023.8 -
26/10:30pm W 12 16 - - - - - - - 14.4 1023.8 -
26/10:00pm W 10 13 - - - - - - - 14.8 1023.8 -
26/09:30pm W 7 11 - - - - - - - 15.0 1023.8 -
26/09:00pm W 8 12 - - - - - - - 15.1 1023.9 -
26/08:30pm W 6 8 - - - - - - - 15.4 1023.8 -
26/08:00pm WSW 6 9 - - - - - - - 15.5 1023.7 -
26/07:30pm WSW 5 7 - - - - - - - 15.7 1023.5 -
26/07:00pm WSW 4 6 - - - - - - - 15.5 1023.3 -
26/06:30pm WSW 3 5 - - - - - - - 16.0 1023.2 -
26/06:00pm SW 2 3 - - - - - - - 16.3 1022.7 -
26/05:30pm W 6 7 - - - - - - - 16.9 1022.6 -
26/05:00pm W 7 10 - - - - - - - 17.4 1022.2 -
26/04:30pm W 5 8 - - - - - - - 17.4 1021.8 -
26/04:00pm WSW 6 9 - - - - - - - 17.3 1021.7 -
26/03:30pm WSW 8 12 - - - - - - - 17.7 1021.5 -
26/03:00pm SW 5 9 - - - - - - - 17.9 1021.6 -
26/02:30pm SSE 4 9 - - - - - - - 17.7 1021.6 -
26/02:00pm SE 5 8 - - - - - - - 17.8 1021.4 -
26/01:30pm SE 5 7 - - - - - - - 17.4 1021.5 -
26/01:00pm S 3 11 - - - - - - - 17.9 1021.8 -
26/12:30pm ENE 2 4 - - - - - - - 17.6 1022.0 -
26/12:00pm N 3 9 - - - - - - - 17.6 1022.3 -
26/11:30am N 3 6 - - - - - - - 17.4 1022.7 -
26/11:00am NNW 5 9 - - - - - - - 17.1 1023.1 -
26/10:30am NNW 6 11 - - - - - - - 17.0 1023.6 -
26/10:00am N 6 9 - - - - - - - 16.4 1023.7 -
26/09:30am N 3 6 - - - - - - - 16.0 1023.7 -
26/09:00am NW 5 6 - - - - - - - 14.9 1023.8 -
26/08:30am WNW 6 7 - - - - - - - 14.0 1023.8 -
26/08:00am WNW 7 9 - - - - - - - 13.9 1023.7 -
26/07:30am WNW 6 8 - - - - - - - 13.6 1023.5 -
26/07:00am NNW 6 8 - - - - - - - 14.3 1023.4 -
26/06:30am NW 5 7 - - - - - - - 14.2 1023.3 -
26/06:00am W 3 6 - - - - - - - 13.8 1023.0 -
26/05:30am WSW 2 4 - - - - - - - 12.9 1022.6 -
26/05:00am WNW 9 11 - - - - - - - 14.7 1022.4 -
26/04:30am NW 11 13 - - - - - - - 14.2 1022.1 -
26/04:00am NW 9 13 - - - - - - - 14.6 1022.0 -
26/03:30am WNW 8 13 - - - - - - - 14.6 1022.1 -
26/03:00am WNW 12 15 - - - - - - - 14.9 1022.0 -
26/02:30am WNW 13 18 - - - - - - - 14.8 1021.9 -
26/02:00am WNW 11 15 - - - - - - - 14.9 1022.0 -
26/01:30am WNW 11 14 - - - - - - - 14.9 1022.2 -
26/01:00am WNW 11 15 - - - - - - - 14.7 1022.0 -
26/12:30am W 9 13 - - - - - - - 14.5 1022.1 -
26/12:00am WNW 8 12 - - - - - - - 14.8 1022.2 -
 
Date/Time
EST
Wind Sea
Height
m
Swell Vis
km
Cloud Weather Temp
°C
Press
MSL
hPa
Rain since
9am
mm
Dir  Spd
kts
Gust
kts
Height
m
Period
s
Dir
25/11:30pm WNW 10 15 - - - - - - - 14.9 1022.2 -
25/11:00pm WNW 12 15 - - - - - - - 14.6 1022.2 -
25/10:30pm WNW 9 13 - - - - - - - 14.9 1022.2 -
25/10:00pm WNW 11 14 - - - - - - - 15.0 1022.3 -
25/09:30pm WNW 9 12 - - - - - - - 15.0 1022.3 -
25/09:00pm WNW 9 15 - - - - - - - 15.5 1022.2 -
25/08:30pm WNW 8 14 - - - - - - - 16.1 1022.3 -
25/08:00pm W 8 11 - - - - - - - 16.1 1022.2 -
25/07:30pm W 10 16 - - - - - - - 16.1 1021.9 -
25/07:00pm W 8 11 - - - - - - - 16.2 1021.7 -
25/06:30pm WSW 2 4 - - - - - - - 15.9 1021.2 -
25/06:00pm WSW 2 4 - - - - - - - 16.3 1020.9 -
25/05:30pm WSW 2 4 - - - - - - - 16.6 1020.5 -
25/05:00pm WSW 3 5 - - - - - - - 17.3 1020.2 -
25/04:30pm W 8 11 - - - - - - - 18.0 1020.0 -
25/04:00pm WSW 9 14 - - - - - - - 18.4 1019.7 -
25/03:30pm W 14 20 - - - - - - - 18.6 1019.4 -
25/03:00pm W 12 19 - - - - - - - 18.8 1019.1 -
25/02:30pm W 17 24 - - - - - - - 18.7 1019.1 -
25/02:00pm WSW 18 24 - - - - - - - 18.8 1019.0 -
25/01:30pm WSW 12 17 - - - - - - - 19.0 1019.0 -
25/01:00pm W 16 24 - - - - - - - 18.7 1019.1 -
25/12:30pm WNW 12 17 - - - - - - - 18.4 1019.2 -
25/12:00pm WSW 9 13 - - - - - - - 18.1 1019.6 -
25/11:30am W 8 14 - - - - - - - 17.7 1020.0 -
25/11:00am W 7 12 - - - - - - - 17.5 1020.5 -
25/10:30am WNW 6 10 - - - - - - - 17.1 1020.8 -
25/10:00am WNW 8 12 - - - - - - - 16.7 1020.8 -
25/09:30am WNW 8 13 - - - - - - - 16.3 1020.8 -
25/09:00am W 5 9 - - - - - - - 15.6 1020.7 -
25/08:30am WSW 7 9 - - - - - - - 15.2 1020.6 -
25/08:00am W 6 9 - - - - - - - 14.8 1020.3 -
25/07:30am W 9 12 - - - - - - - 15.0 1019.9 -
25/07:00am WNW 8 10 - - - - - - - 14.9 1019.7 -
25/06:30am NW 6 8 - - - - - - - 15.6 1019.3 -
25/06:00am WNW 4 7 - - - - - - - 15.1 1018.8 -
25/05:30am WNW 3 6 - - - - - - - 15.7 1018.4 -
25/05:00am W 8 12 - - - - - - - 15.7 1018.0 -
25/04:30am WNW 9 12 - - - - - - - 16.0 1017.7 -

Other formats

Comma delimited format used in spreadsheet applications
http://www.bom.gov.au/fwo/IDN60701/IDN60701.95745.axf

JavaScript Object Notation format (JSON) in row-major order
http://www.bom.gov.au/fwo/IDN60701/IDN60701.95745.json

Data quality

Most of these data are generated automatically and are frequently updated. Quality checks on data are not normally performed. It is possible for incorrect values to appear. Refer to information at About Latest Weather Observations and please check the disclaimer before using these data.